Time;durP1;ratioP1;P1;durP2;ratioP2;P2;SDS_P1;SDS_P2;PMS_P1;PMS_P2;Temp;Humidity;BMP_temperature;BMP_pressure;BME280_temperature;BME280_humidity;BME280_pressure;Samples;Min_cycle;Max_cycle;Signal;HPM_P1;HPM_P2
2022/09/08 00:00:59;;;;;;;10.35;4.05;;;;;;;10.70;72.43;99318.91;6224305;23;20472;-88
2022/09/08 00:03:29;;;;;;;6.05;4.32;;;;;;;10.77;72.67;99343.84;6221896;23;20408;-93
2022/09/08 00:06:03;;;;;;;6.40;4.25;;;;;;;10.94;72.50;99367.75;6195923;23;20066;-92
2022/09/08 00:08:30;;;;;;;10.95;4.03;;;;;;;10.99;72.87;99370.34;6195595;23;20027;-93
2022/09/08 00:11:00;;;;;;;5.95;4.30;;;;;;;10.93;72.93;99355.22;6195502;23;20039;-91
2022/09/08 00:13:29;;;;;;;7.18;4.20;;;;;;;10.70;72.72;99330.63;6246059;23;20012;-93
2022/09/08 00:15:56;;;;;;;6.82;3.90;;;;;;;10.77;72.47;99332.91;6246585;23;20630;-91
2022/09/08 00:18:23;;;;;;;7.67;3.87;;;;;;;10.72;72.79;99338.50;6256318;23;20012;-93
2022/09/08 00:20:50;;;;;;;6.32;4.18;;;;;;;10.78;72.66;99335.31;6245868;23;20016;-95
2022/09/08 00:23:19;;;;;;;5.65;4.20;;;;;;;10.91;72.06;99341.81;6194965;23;20031;-93
2022/09/08 00:25:46;;;;;;;8.85;3.85;;;;;;;10.98;71.73;99358.59;6193567;23;20024;-90
2022/09/08 00:28:12;;;;;;;6.95;4.25;;;;;;;10.97;72.01;99357.00;6168810;23;20016;-93
2022/09/08 00:30:38;;;;;;;7.03;4.25;;;;;;;11.05;71.71;99372.63;6193808;23;20016;-94
2022/09/08 00:33:04;;;;;;;7.22;4.00;;;;;;;11.05;71.54;99360.88;6217789;23;20031;-89
2022/09/08 00:35:31;;;;;;;10.32;3.78;;;;;;;11.17;71.68;99387.66;6193234;23;20016;-93
2022/09/08 00:37:57;;;;;;;6.25;3.75;;;;;;;11.17;71.66;99373.97;6168620;23;20032;-91
2022/09/08 00:40:25;;;;;;;5.97;3.47;;;;;;;11.31;71.01;99385.63;6218238;23;20565;-94
2022/09/08 00:43:00;;;;;;;6.95;3.90;;;;;;;11.35;71.12;99386.59;6218328;23;20131;-91
2022/09/08 00:45:32;;;;;;;6.78;3.80;;;;;;;11.33;71.16;99386.13;6168558;23;20050;-93
2022/09/08 00:48:01;;;;;;;4.32;3.30;;;;;;;11.28;70.68;99380.78;6193311;23;20339;-91
2022/09/08 00:50:28;;;;;;;5.38;3.90;;;;;;;11.27;70.84;99379.97;6218684;23;20027;-93
2022/09/08 00:53:00;;;;;;;7.85;4.00;;;;;;;11.27;71.07;99371.75;6193656;23;20022;-90
2022/09/08 00:55:34;;;;;;;7.13;3.38;;;;;;;11.07;70.12;99344.97;6193753;23;20020;-94
2022/09/08 00:58:00;;;;;;;8.25;3.40;;;;;;;11.31;69.69;99393.81;6168316;23;20020;-96
2022/09/08 01:00:28;;;;;;;5.43;3.10;;;;;;;11.17;70.01;99366.56;6193329;23;20461;-93
2022/09/08 01:02:54;;;;;;;4.03;2.90;;;;;;;11.17;69.88;99373.97;6219089;23;20024;-91
2022/09/08 01:05:27;;;;;;;4.75;3.28;;;;;;;11.13;69.74;99351.91;6244792;23;20016;-92
2022/09/08 01:14:01;;;;;;;4.03;3.10;;;;;;;11.15;69.80;99354.31;6219354;23;20082;-93
2022/09/08 01:16:27;;;;;;;5.70;3.28;;;;;;;11.19;69.55;99358.03;6219090;23;20050;-91
2022/09/08 01:18:57;;;;;;;9.68;4.47;;;;;;;11.04;70.04;99329.97;6244711;23;20016;-93
2022/09/08 01:21:41;;;;;;;4.38;2.90;;;;;;;11.37;69.22;99376.16;6219307;23;20544;-93
2022/09/08 01:24:29;;;;;;;4.35;2.80;;;;;;;11.41;69.42;99385.31;6219405;23;20250;-91
2022/09/08 01:27:21;;;;;;;3.85;2.60;;;;;;;11.32;68.86;99379.00;6219462;23;20020;-93
2022/09/08 01:29:51;;;;;;;4.07;2.85;;;;;;;11.27;68.86;99377.22;6244339;23;20515;-90
2022/09/08 01:32:18;;;;;;;4.78;2.67;;;;;;;11.33;68.45;99386.13;6244593;23;20461;-90
2022/09/08 01:34:45;;;;;;;3.30;2.58;;;;;;;11.18;69.18;99364.63;6244149;23;20110;-92
2022/09/08 01:37:12;;;;;;;8.05;2.92;;;;;;;11.27;69.09;99388.19;6193897;23;20043;-95
2022/09/08 01:39:38;;;;;;;6.93;2.85;;;;;;;11.20;68.92;99365.94;6219527;23;20031;-94
2022/09/08 01:42:05;;;;;;;7.30;2.90;;;;;;;11.36;69.41;99387.44;6194300;23;20020;-91
2022/09/08 01:44:32;;;;;;;;;;;;;;;11.51;68.60;99400.66;6194473;23;20218;-92
2022/09/08 01:46:58;;;;;;;;;;;;;;;11.49;68.27;99398.25;6246359;22;19915;-91
2022/09/08 01:49:24;;;;;;;3.13;2.57;;;;;;;11.39;69.05;99394.97;6218830;23;19942;-94
2022/09/08 01:51:51;;;;;;;4.50;2.40;;;;;;;11.21;67.84;99399.56;6244448;23;20243;-93
2022/09/08 01:54:17;;;;;;;5.20;2.60;;;;;;;11.16;68.54;99386.84;6244281;23;20039;-93
2022/09/08 01:56:43;;;;;;;4.17;2.60;;;;;;;11.30;68.64;99403.16;6218968;23;20012;-90
2022/09/08 01:59:09;;;;;;;4.50;2.40;;;;;;;11.32;68.11;99400.91;6244354;23;20135;-92
2022/09/08 02:01:35;;;;;;;4.57;2.50;;;;;;;11.37;68.92;99391.75;6245602;22;20020;-89
2022/09/08 02:04:02;;;;;;;3.50;2.30;;;;;;;11.45;68.28;99400.00;6245926;22;20016;-91
2022/09/08 02:06:28;;;;;;;6.13;2.83;;;;;;;11.43;68.37;99413.22;6194012;23;20027;-91
2022/09/08 02:08:55;;;;;;;9.33;3.07;;;;;;;11.22;68.08;99385.56;6219316;23;20024;-90
2022/09/08 02:13:50;;;;;;;4.50;3.05;;;;;;;11.04;67.41;99398.38;6245996;23;19912;-93
2022/09/08 02:16:16;;;;;;;5.57;2.95;;;;;;;10.96;68.29;99388.19;6246482;22;20023;-89
2022/09/08 02:18:42;;;;;;;5.18;3.40;;;;;;;11.08;67.41;99409.50;6194046;23;20520;-94
2022/09/08 02:21:10;;;;;;;4.32;3.22;;;;;;;11.05;68.04;99412.84;6244421;23;20061;-90
2022/09/08 02:23:39;;;;;;;7.32;3.53;;;;;;;11.13;67.83;99403.09;6244480;23;20023;-92
2022/09/08 02:26:07;;;;;;;5.70;3.72;;;;;;;11.18;67.39;99419.34;6244568;23;20058;-90
2022/09/08 02:28:33;;;;;;;5.80;3.95;;;;;;;11.10;68.18;99392.78;6193932;23;20024;-92
2022/09/08 02:31:02;;;;;;;7.13;4.18;;;;;;;11.22;67.44;99418.41;6219101;23;20432;-92
2022/09/08 02:33:30;;;;;;;7.35;4.30;;;;;;;11.04;66.81;99411.25;6219036;23;20079;-94
2022/09/08 02:38:25;;;;;;;18.10;5.18;;;;;;;11.20;67.08;99439.03;6245218;22;20020;-91
2022/09/08 02:43:22;;;;;;;9.60;5.00;;;;;;;11.09;67.24;99437.66;6247746;22;20016;-93
2022/09/08 02:48:17;;;;;;;10.55;5.53;;;;;;;10.80;67.16;99404.19;6245745;22;20023;-91
2022/09/08 02:55:42;;;;;;;8.45;5.50;;;;;;;10.82;67.61;99423.81;6246319;22;20065;-92
2022/09/08 02:58:10;;;;;;;7.72;5.47;;;;;;;10.80;67.74;99417.06;6193881;23;20024;-94
2022/09/08 03:00:39;;;;;;;9.50;5.43;;;;;;;10.77;67.88;99429.44;6209855;23;20020;-90
2022/09/08 03:03:06;;;;;;;9.50;5.60;;;;;;;10.72;68.69;99436.94;6223107;23;20023;-91
2022/09/08 03:05:33;;;;;;;9.57;5.72;;;;;;;10.75;68.41;99437.13;6194908;23;20103;-94
2022/09/08 03:07:59;;;;;;;8.63;5.80;;;;;;;10.78;68.39;99431.03;6220166;23;20031;-91
2022/09/08 03:10:26;;;;;;;9.93;6.30;;;;;;;10.84;68.22;99423.50;6195238;23;20070;-89
2022/09/08 03:12:53;;;;;;;9.57;6.30;;;;;;;11.03;67.88;99448.75;6245502;23;20257;-90
2022/09/08 03:15:21;;;;;;;8.93;6.38;;;;;;;11.02;69.04;99447.09;6221897;23;20318;-90
2022/09/08 03:17:47;;;;;;;8.52;5.88;;;;;;;10.95;68.92;99440.47;6251170;22;20039;-93
2022/09/08 03:21:00;;;;;;;8.18;5.80;;;;;;;11.20;68.44;99471.84;6229179;23;20000;-93
2022/09/08 03:24:33;;;;;;;8.00;6.00;;;;;;;11.24;68.29;99470.09;6161149;23;20017;-88
2022/09/08 03:27:10;;;;;;;12.73;5.93;;;;;;;11.22;68.13;99472.31;6136581;23;20039;-93
2022/09/08 03:29:58;;;;;;;10.48;6.53;;;;;;;10.91;68.66;99434.00;6180207;23;20021;-90
2022/09/08 03:32:28;;;;;;;7.22;5.57;;;;;;;10.78;68.12;99458.38;6190580;23;20096;-91
2022/09/08 03:34:54;;;;;;;7.57;5.43;;;;;;;10.70;68.65;99483.75;6136061;23;20017;-95
2022/09/08 03:37:21;;;;;;;7.13;4.55;;;;;;;10.65;68.32;99461.16;6111667;23;20021;-90
2022/09/08 03:39:48;;;;;;;10.75;4.78;;;;;;;10.49;67.89;99436.13;6135353;23;20036;-93
2022/09/08 03:42:17;;;;;;;12.63;4.78;;;;;;;10.64;69.65;99495.91;6111540;23;20025;-94
2022/09/08 03:44:43;;;;;;;6.65;4.65;;;;;;;10.65;68.31;99494.78;6161772;23;20100;-88
2022/09/08 03:47:10;;;;;;;6.83;4.00;;;;;;;10.38;68.37;99449.22;6159141;23;20156;-91
2022/09/08 03:49:36;;;;;;;5.70;4.30;;;;;;;10.23;68.44;99453.09;6110144;23;20021;-91
2022/09/08 03:52:03;;;;;;;7.80;4.25;;;;;;;10.47;68.13;99471.97;6132998;23;20079;-91
2022/09/08 03:54:47;;;;;;;7.30;4.25;;;;;;;10.75;67.82;99494.53;6166446;23;20020;-92
2022/09/08 03:57:16;;;;;;;6.70;3.95;;;;;;;10.80;67.40;99510.03;6219989;23;20027;-93
2022/09/08 03:59:42;;;;;;;6.03;3.88;;;;;;;10.68;67.82;99501.56;6194751;23;20058;-90
2022/09/08 04:02:10;;;;;;;6.32;4.38;;;;;;;10.67;67.46;99487.09;6194726;23;20094;-91
2022/09/08 04:04:37;;;;;;;4.72;3.60;;;;;;;10.60;66.86;99483.97;6193920;23;20026;-91
2022/09/08 04:07:03;;;;;;;4.47;3.72;;;;;;;10.76;67.09;99509.84;6220065;23;20020;-90
2022/09/08 04:09:30;;;;;;;5.73;3.70;;;;;;;10.62;66.78;99489.94;6194476;23;20110;-90
2022/09/08 04:11:56;;;;;;;11.68;3.78;;;;;;;10.77;68.60;99503.25;6219495;23;20555;-88
2022/09/08 04:14:22;;;;;;;5.93;3.63;;;;;;;10.75;66.53;99507.41;6244864;23;20012;-91
2022/09/08 04:16:48;;;;;;;7.45;4.38;;;;;;;10.83;66.45;99514.88;6245338;23;20073;-90
2022/09/08 04:19:15;;;;;;;6.15;3.70;;;;;;;10.53;66.90;99469.94;6219452;23;20008;-91
2022/09/08 04:21:41;;;;;;;5.85;4.13;;;;;;;10.63;66.36;99480.63;6194381;23;20016;-91
2022/09/08 04:26:37;;;;;;;7.43;5.05;;;;;;;10.78;65.76;99480.25;6246286;22;20012;-89
2022/09/08 04:31:28;;;;;;;14.77;5.10;;;;;;;10.82;65.46;99485.91;6245240;22;20016;-88
2022/09/08 04:33:55;;;;;;;9.48;5.18;;;;;;;11.01;65.96;99505.69;6244580;23;20035;-91
2022/09/08 04:36:22;;;;;;;;;;;;;;;11.22;65.15;99522.38;6194459;23;20081;-87
2022/09/08 04:38:48;;;;;;;9.05;4.40;;;;;;;11.20;64.19;99521.09;6244567;22;20369;-90
2022/09/08 04:41:17;;;;;;;13.00;5.45;;;;;;;11.26;64.81;99523.41;6245962;22;20027;-88
2022/09/08 04:43:43;;;;;;;12.88;5.30;;;;;;;11.34;64.25;99529.25;6245437;22;20022;-90
2022/09/08 04:46:15;;;;;;;12.05;5.03;;;;;;;11.23;64.74;99502.13;6192913;23;20022;-88
2022/09/08 04:48:43;;;;;;;8.52;4.13;;;;;;;11.06;62.90;99507.50;6244099;23;20024;-90
2022/09/08 04:51:14;;;;;;;6.03;3.63;;;;;;;10.76;63.21;99470.72;6219531;23;20015;-89
2022/09/08 04:53:43;;;;;;;7.80;3.58;;;;;;;10.84;63.10;99497.34;6193497;23;20036;-88
2022/09/08 04:56:11;;;;;;;7.00;3.70;;;;;;;10.79;63.17;99508.41;6193243;23;20599;-90
2022/09/08 04:58:43;;;;;;;9.48;3.28;;;;;;;10.73;63.74;99515.94;6219501;23;20051;-89
2022/09/08 05:03:39;;;;;;;9.95;3.40;;;;;;;10.43;64.78;99517.44;6245299;22;20015;-89
2022/09/08 05:06:08;;;;;;;6.03;2.85;;;;;;;10.26;64.40;99495.38;6244341;23;20126;-90
2022/09/08 05:11:04;;;;;;;6.03;3.42;;;;;;;10.54;64.52;99523.47;6244500;22;20016;-90
2022/09/08 05:13:31;;;;;;;6.00;3.80;;;;;;;10.76;63.38;99544.56;6218011;23;20026;-90
2022/09/08 05:16:22;;;;;;;8.70;3.67;;;;;;;10.88;62.99;99533.91;6217128;23;20016;-90
2022/09/08 05:21:18;;;;;;;12.43;3.78;;;;;;;10.94;63.80;99529.94;6245228;22;20095;-89
2022/09/08 05:23:45;;;;;;;5.75;3.40;;;;;;;10.62;63.63;99508.25;6217943;23;20024;-88
2022/09/08 05:28:41;;;;;;;8.40;3.35;;;;;;;10.58;64.46;99535.41;6244583;22;20453;-88
2022/09/08 05:31:12;;;;;;;6.78;3.58;;;;;;;10.54;65.64;99561.75;6244645;23;20599;-87
2022/09/08 05:33:38;;;;;;;15.63;3.80;;;;;;;10.19;67.49;99552.34;6193571;23;20039;-88
2022/09/08 05:36:14;;;;;;;12.05;3.92;;;;;;;10.31;68.44;99574.53;6217630;23;20016;-89
2022/09/08 05:38:41;;;;;;;10.75;4.50;;;;;;;10.19;69.10;99549.59;6246287;22;20067;-89
2022/09/08 05:41:09;;;;;;;12.63;4.97;;;;;;;10.38;68.69;99576.84;6220057;23;20016;-92
2022/09/08 05:43:39;;;;;;;5.63;3.72;;;;;;;10.41;68.72;99582.50;6243210;23;20019;-89
2022/09/08 05:46:06;;;;;;;8.25;4.53;;;;;;;10.52;68.80;99563.97;6218341;23;20351;-89
2022/09/08 05:48:32;;;;;;;14.60;4.32;;;;;;;10.68;68.56;99578.13;6245190;22;20366;-92
2022/09/08 05:50:59;;;;;;;12.57;5.20;;;;;;;10.70;68.45;99567.69;6244470;22;20016;-90
2022/09/08 05:53:27;;;;;;;11.52;5.40;;;;;;;10.90;69.20;99585.56;6243070;23;20023;-89
2022/09/08 05:56:02;;;;;;;10.60;5.00;;;;;;;10.74;66.77;99574.97;6245004;22;20048;-90
2022/09/08 05:58:29;;;;;;;10.85;4.80;;;;;;;10.63;67.25;99548.97;6243517;23;20654;-90
2022/09/08 06:00:56;;;;;;;14.52;5.05;;;;;;;10.87;66.99;99583.44;6217600;23;20020;-91
2022/09/08 06:05:55;;;;;;;9.55;5.68;;;;;;;11.14;66.80;99590.75;6246290;22;20012;-90
2022/09/08 06:10:52;;;;;;;10.55;5.00;;;;;;;11.21;64.77;99572.78;6244917;22;20450;-91
2022/09/08 06:15:48;;;;;;;10.00;5.32;;;;;;;11.46;64.76;99579.56;6252744;22;20066;-94
2022/09/08 06:18:16;;;;;;;11.10;5.32;;;;;;;11.30;62.26;99570.09;6243636;23;20027;-90
2022/09/08 06:20:43;;;;;;;8.10;4.68;;;;;;;11.21;63.07;99569.22;6193366;23;20012;-90
2022/09/08 06:23:11;;;;;;;12.43;4.65;;;;;;;11.15;62.30;99518.47;6245056;22;20012;-89
2022/09/08 06:25:45;;;;;;;15.18;4.53;;;;;;;11.32;61.58;99589.75;6218805;23;20016;-90
2022/09/08 06:28:40;;;;;;;8.57;4.80;;;;;;;11.24;61.13;99563.13;6217873;23;20484;-92
2022/09/08 06:31:08;;;;;;;11.90;4.90;;;;;;;11.47;61.92;99585.84;6244493;22;20047;-89
2022/09/08 06:33:40;;;;;;;10.98;4.78;;;;;;;11.62;62.49;99588.19;6244544;22;20078;-88
2022/09/08 06:36:14;;;;;;;11.77;4.40;;;;;;;11.69;60.71;99594.03;6241614;23;20016;-89
2022/09/08 06:38:50;;;;;;;21.10;5.18;;;;;;;11.48;59.92;99563.63;6243370;23;20020;-89
2022/09/08 06:41:33;;;;;;;16.20;5.28;;;;;;;11.61;61.22;99594.78;6244565;23;20369;-88
2022/09/08 06:44:09;;;;;;;19.00;5.05;;;;;;;11.33;61.09;99555.00;6219594;23;20016;-89
2022/09/08 06:46:41;;;;;;;13.60;5.47;;;;;;;11.66;63.54;99608.34;6194745;23;20016;-89
2022/09/08 06:49:12;;;;;;;14.07;5.03;;;;;;;11.81;62.07;99622.75;6219391;23;20027;-88
2022/09/08 06:51:50;;;;;;;15.30;5.32;;;;;;;11.67;62.67;99628.31;6219627;23;20397;-90
2022/09/08 06:54:22;;;;;;;26.73;5.63;;;;;;;11.59;62.29;99634.53;6246361;22;20078;-90
2022/09/08 06:57:03;;;;;;;11.73;4.72;;;;;;;11.42;61.65;99633.31;6244498;23;20397;-88
2022/09/08 07:02:07;;;;;;;10.80;4.88;;;;;;;11.56;61.35;99624.25;6246508;22;20016;-88
2022/09/08 07:04:46;;;;;;;11.43;4.65;;;;;;;11.70;60.58;99635.91;6247284;23;20016;-89
2022/09/08 07:07:21;;;;;;;26.67;4.95;;;;;;;11.77;60.10;99630.81;6221657;23;20074;-89
2022/09/08 07:10:01;;;;;;;14.38;5.13;;;;;;;11.57;60.20;99636.78;6246072;23;20339;-90
2022/09/08 07:12:55;;;;;;;18.77;5.20;;;;;;;11.74;59.91;99634.16;6246590;23;20111;-87
2022/09/08 07:15:39;;;;;;;12.77;4.32;;;;;;;11.80;58.94;99621.97;6247075;23;20027;-92
2022/09/08 07:18:28;;;;;;;10.95;4.28;;;;;;;11.74;58.04;99610.31;6245517;23;20381;-91
2022/09/08 07:21:11;;;;;;;13.00;3.95;;;;;;;11.96;57.83;99638.84;6220392;23;20476;-92
2022/09/08 07:23:40;;;;;;;11.70;3.90;;;;;;;11.89;58.52;99633.81;6195764;23;20110;-94
2022/09/08 07:26:20;;;;;;;26.30;4.30;;;;;;;11.71;58.64;99602.72;6220312;23;20023;-93
2022/09/08 07:28:51;;;;;;;10.55;3.80;;;;;;;11.73;58.68;99630.63;6194823;23;20377;-93
2022/09/08 07:31:21;;;;;;;10.05;3.72;;;;;;;11.75;59.71;99649.47;6246232;23;20478;-93
2022/09/08 07:34:15;;;;;;;13.60;4.82;;;;;;;11.55;61.13;99600.69;6223624;23;20040;-91
2022/09/08 07:37:03;;;;;;;15.80;3.80;;;;;;;11.95;61.94;99637.22;6246854;23;20023;-90
2022/09/08 07:39:55;;;;;;;12.55;4.38;;;;;;;11.96;60.68;99634.16;6245078;23;20070;-92
2022/09/08 07:42:22;;;;;;;9.43;3.58;;;;;;;12.10;61.93;99639.56;6220505;23;20020;-92
2022/09/08 07:45:05;;;;;;;12.07;3.75;;;;;;;11.85;59.39;99630.06;6219924;23;20012;-93
2022/09/08 07:47:57;;;;;;;9.90;3.58;;;;;;;11.31;61.23;99614.69;6220769;23;20397;-91
2022/09/08 07:50:55;;;;;;;8.48;3.47;;;;;;;11.24;60.18;99593.25;6220319;23;20564;-93
2022/09/08 07:53:22;;;;;;;14.63;3.95;;;;;;;11.65;60.98;99661.47;6220319;23;20012;-93
2022/09/08 07:58:25;;;;;;;14.93;3.88;;;;;;;11.27;60.73;99634.47;6246532;22;20369;-93
2022/09/08 08:00:52;;;;;;;17.17;4.50;;;;;;;11.65;60.40;99656.00;6220789;23;20020;-93
2022/09/08 08:03:27;;;;;;;16.35;4.05;;;;;;;11.81;59.61;99611.81;6247664;23;20016;-92
2022/09/08 08:06:17;;;;;;;19.38;4.05;;;;;;;11.77;58.84;99590.53;6199606;23;20059;-91
2022/09/08 08:08:58;;;;;;;20.55;3.38;;;;;;;11.65;57.63;99625.88;6246839;23;20015;-90
2022/09/08 08:11:56;;;;;;;13.57;4.00;;;;;;;11.79;57.25;99661.44;6197115;23;20047;-89
2022/09/08 08:14:31;;;;;;;9.68;3.75;;;;;;;11.74;58.47;99625.94;6119474;22;20114;-91
2022/09/08 08:16:57;;;;;;;10.40;4.22;;;;;;;12.23;57.75;99659.78;6221914;23;20008;-91
2022/09/08 08:19:32;;;;;;;10.60;4.40;;;;;;;12.10;59.70;99614.88;6197980;23;20357;-91
2022/09/08 08:22:25;;;;;;;7.75;4.05;;;;;;;12.28;58.90;99628.66;6199401;23;20016;-92
2022/09/08 08:25:04;;;;;;;25.02;5.35;;;;;;;12.14;58.66;99602.16;6195295;23;20319;-91
2022/09/08 08:28:11;;;;;;;17.67;4.35;;;;;;;12.48;58.54;99666.47;6196139;23;20031;-91
2022/09/08 08:30:48;;;;;;;10.65;5.18;;;;;;;12.05;60.52;99620.50;6219165;23;20024;-91
2022/09/08 08:33:22;;;;;;;13.32;4.93;;;;;;;12.18;60.75;99651.66;6218482;23;20055;-90
2022/09/08 08:35:53;;;;;;;20.77;5.40;;;;;;;12.10;61.39;99671.63;6193844;23;20475;-92
2022/09/08 08:38:24;;;;;;;20.13;5.57;;;;;;;12.07;61.02;99677.75;6219062;23;20364;-91
2022/09/08 08:41:00;;;;;;;17.08;5.43;;;;;;;12.09;62.29;99679.06;6194080;23;20150;-93
2022/09/08 08:43:36;;;;;;;17.45;6.07;;;;;;;12.01;59.92;99668.03;6193495;23;20019;-89
2022/09/08 08:46:20;;;;;;;10.63;4.63;;;;;;;11.95;58.16;99681.03;6162881;23;20016;-92
2022/09/08 08:49:02;;;;;;;14.30;4.43;;;;;;;11.93;59.16;99658.66;6187958;23;20020;-92
2022/09/08 08:51:36;;;;;;;34.20;5.63;;;;;;;12.10;57.66;99677.13;6212621;23;20087;-90
2022/09/08 08:54:23;;;;;;;31.13;6.00;;;;;;;12.30;58.77;99676.56;6212177;23;20493;-89
2022/09/08 08:57:13;;;;;;;12.48;4.30;;;;;;;12.40;57.73;99665.31;6162275;23;20123;-90
2022/09/08 09:00:13;;;;;;;14.40;4.03;;;;;;;12.64;56.37;99692.34;6187910;23;20490;-92
2022/09/08 09:03:28;;;;;;;16.08;5.82;;;;;;;12.27;55.65;99651.72;6187734;23;20021;-90
2022/09/08 09:06:24;;;;;;;24.08;4.03;;;;;;;12.11;55.42;99708.88;6162109;23;20052;-90
2022/09/08 09:09:20;;;;;;;12.10;4.67;;;;;;;12.03;56.80;99698.69;6188717;23;20021;-91
2022/09/08 09:12:12;;;;;;;14.23;4.50;;;;;;;11.97;57.69;99707.00;6215596;23;20046;-91
2022/09/08 09:14:50;;;;;;;12.77;4.47;;;;;;;11.71;58.74;99689.56;6200435;23;20021;-91
2022/09/08 09:17:58;;;;;;;8.27;4.43;;;;;;;11.71;60.67;99693.09;6188098;23;20056;-92
2022/09/08 09:20:42;;;;;;;13.20;3.58;;;;;;;11.66;60.88;99725.31;6163012;23;20092;-93
2022/09/08 09:26:05;;;;;;;9.07;3.92;;;;;;;11.40;61.17;99714.13;6245827;22;20020;-92
2022/09/08 09:28:54;;;;;;;13.73;4.38;;;;;;;11.15;62.38;99729.16;6182427;23;20019;-91
2022/09/08 09:32:15;;;;;;;8.55;3.75;;;;;;;10.95;63.21;99728.47;6219158;23;20016;-92
2022/09/08 09:35:10;;;;;;;16.40;4.40;;;;;;;11.10;62.70;99721.09;6080134;23;20048;-92
2022/09/08 09:37:48;;;;;;;7.82;3.70;;;;;;;11.39;61.84;99702.38;6243965;23;20026;-93
2022/09/08 09:40:25;;;;;;;12.55;4.65;;;;;;;11.64;62.21;99675.50;6193780;23;20016;-91
2022/09/08 09:43:30;;;;;;;14.43;5.57;;;;;;;12.38;58.47;99716.09;6193926;23;20043;-93
2022/09/08 09:46:36;;;;;;;13.23;4.32;;;;;;;12.01;58.22;99684.47;6080662;23;20017;-93
2022/09/08 09:49:07;;;;;;;8.82;3.38;;;;;;;11.85;57.89;99730.63;6033163;23;20072;-90
2022/09/08 09:51:39;;;;;;;22.60;4.25;;;;;;;11.71;58.64;99723.22;6104883;23;20025;-95
2022/09/08 09:54:33;;;;;;;18.60;3.42;;;;;;;11.55;58.38;99732.91;6080058;23;20021;-90
2022/09/08 09:57:42;;;;;;;11.38;3.60;;;;;;;11.75;58.27;99737.09;6151872;23;20547;-90
2022/09/08 10:00:28;;;;;;;14.45;3.70;;;;;;;11.66;58.07;99708.88;6004101;23;20064;-91
2022/09/08 10:03:26;;;;;;;24.00;3.70;;;;;;;12.12;57.68;99740.63;6152241;23;20021;-92
2022/09/08 10:06:30;;;;;;;17.17;3.97;;;;;;;12.06;56.34;99739.16;6079300;23;20044;-91
2022/09/08 10:11:48;;;;;;;12.20;4.30;;;;;;;12.52;56.78;99747.00;6134506;23;20072;-92
2022/09/08 10:14:32;;;;;;;;;;;;;;;12.58;55.97;99758.63;6079888;23;20477;-91
2022/09/08 10:17:35;;;;;;;10.80;3.20;;;;;;;12.36;56.32;99763.03;6081819;23;19963;-91
2022/09/08 10:20:36;;;;;;;9.82;2.40;;;;;;;12.09;55.74;99764.00;6155425;23;20048;-91
2022/09/08 10:23:42;;;;;;;6.18;3.15;;;;;;;12.07;56.76;99744.31;6161676;23;20047;-91
2022/09/08 10:26:44;;;;;;;5.15;2.83;;;;;;;12.24;55.62;99779.25;6247541;23;20047;-92
2022/09/08 10:29:28;;;;;;;7.03;2.67;;;;;;;12.27;55.86;99786.03;6195394;23;20031;-92
2022/09/08 10:32:20;;;;;;;7.72;2.72;;;;;;;12.07;57.00;99773.66;6195392;23;20476;-93
2022/09/08 10:35:06;;;;;;;9.35;3.03;;;;;;;12.09;56.84;99779.63;6220278;23;20016;-90
2022/09/08 10:38:09;;;;;;;7.43;2.15;;;;;;;11.87;56.96;99800.41;6220968;23;20162;-93
2022/09/08 10:40:53;;;;;;;7.57;2.13;;;;;;;11.76;56.94;99791.59;6196045;23;20031;-94
2022/09/08 10:43:38;;;;;;;12.10;2.63;;;;;;;11.89;57.66;99798.19;6195954;23;20030;-93
2022/09/08 10:46:29;;;;;;;4.50;2.40;;;;;;;12.09;57.92;99790.59;6195655;23;20019;-91
2022/09/08 10:49:32;;;;;;;8.13;2.47;;;;;;;12.10;57.09;99797.69;6245741;23;20016;-91
2022/09/08 12:36:17;;;;;;;8.10;3.67;;;;;;;13.23;53.79;99815.53;6237317;22;20697;-92
2022/09/08 12:38:59;;;;;;;10.07;2.90;;;;;;;13.75;51.03;99823.13;6198241;22;20357;-92
2022/09/08 12:41:40;;;;;;;5.50;2.50;;;;;;;13.55;50.24;99767.69;6224674;22;20016;-92
2022/09/08 12:44:33;;;;;;;60.22;9.00;;;;;;;14.10;48.10;99833.03;6224215;22;20022;-96
2022/09/08 12:47:09;;;;;;;8.77;2.92;;;;;;;13.90;49.16;99836.38;6224141;22;20070;-89
2022/09/08 12:50:07;;;;;;;17.83;3.20;;;;;;;13.34;50.06;99814.19;6226461;22;20016;-91
2022/09/08 12:52:51;;;;;;;7.55;2.55;;;;;;;13.38;50.39;99839.06;6224786;22;20019;-91
2022/09/08 12:55:39;;;;;;;11.65;3.33;;;;;;;13.51;51.18;99840.03;6223746;22;20011;-89
2022/09/08 12:58:07;;;;;;;10.95;2.50;;;;;;;13.33;50.75;99809.78;6199012;22;20019;-89
2022/09/08 13:00:54;;;;;;;7.97;2.85;;;;;;;13.49;52.34;99834.06;6223850;22;20040;-90
2022/09/08 13:03:28;;;;;;;9.05;3.90;;;;;;;13.45;50.94;99844.88;6248740;22;20023;-89
2022/09/08 13:06:13;;;;;;;11.07;3.00;;;;;;;13.02;51.22;99809.84;6249434;22;20026;-90
2022/09/08 13:08:59;;;;;;;12.23;3.08;;;;;;;13.06;51.91;99857.47;6198515;22;20043;-93
2022/09/08 13:12:01;;;;;;;19.35;4.50;;;;;;;12.83;52.70;99853.16;6224412;22;20110;-90
2022/09/08 13:14:54;;;;;;;22.98;2.85;;;;;;;12.67;52.73;99869.19;6277030;22;20015;-92
2022/09/08 13:17:55;;;;;;;13.23;2.60;;;;;;;12.30;51.60;99829.28;6249701;22;20019;-89
2022/09/08 13:20:29;;;;;;;53.25;4.63;;;;;;;12.49;52.14;99871.03;6182871;22;20114;-88
2022/09/08 13:23:10;;;;;;;9.73;3.15;;;;;;;12.57;51.54;99875.75;6226014;22;20012;-90
2022/09/08 13:25:52;;;;;;;16.75;2.58;;;;;;;12.38;50.37;99875.97;6249574;22;20038;-93
2022/09/08 13:28:43;;;;;;;22.02;2.25;;;;;;;12.34;51.16;99866.72;6224238;22;20019;-91
2022/09/08 13:31:27;;;;;;;12.65;2.30;;;;;;;12.54;50.82;99873.63;6275356;22;20364;-90
2022/09/08 13:34:32;;;;;;;7.28;2.70;;;;;;;12.62;51.41;99874.84;6223786;22;20106;-90
2022/09/08 13:37:23;;;;;;;23.10;2.67;;;;;;;12.83;51.50;99880.59;6219283;23;20035;-89
2022/09/08 13:40:07;;;;;;;17.67;2.88;;;;;;;12.84;51.85;99888.50;6193796;23;20016;-91
2022/09/08 13:42:52;;;;;;;36.42;4.97;;;;;;;12.63;52.93;99882.72;6194046;23;20019;-93
2022/09/08 13:45:36;;;;;;;29.52;3.50;;;;;;;12.43;54.01;99895.00;6245043;23;20016;-91
2022/09/08 13:48:26;;;;;;;19.23;2.33;;;;;;;12.14;54.49;99867.19;6218235;23;20016;-91
2022/09/08 13:51:21;;;;;;;15.40;3.20;;;;;;;12.12;54.67;99907.78;6218410;23;20400;-92
2022/09/08 13:54:18;;;;;;;9.90;2.33;;;;;;;11.99;54.18;99920.44;6193246;23;20438;-90
2022/09/08 13:56:59;;;;;;;12.07;2.25;;;;;;;11.98;53.91;99922.34;6192156;23;20491;-88
2022/09/08 13:59:59;;;;;;;15.57;1.75;;;;;;;11.94;54.06;99913.13;6242967;22;20390;-92
2022/09/08 14:02:37;;;;;;;13.95;2.50;;;;;;;11.71;54.62;99914.13;6218428;23;20026;-89
2022/09/08 14:05:29;;;;;;;6.63;1.65;;;;;;;11.40;54.96;99873.69;6245014;23;20016;-95
2022/09/08 14:08:13;;;;;;;12.68;1.83;;;;;;;11.56;56.09;99895.31;6217312;23;20046;-89
2022/09/08 14:10:42;;;;;;;19.42;2.30;;;;;;;11.89;54.87;99935.16;6191615;23;20528;-89
2022/09/08 14:13:14;;;;;;;23.33;1.80;;;;;;;11.94;54.98;99939.72;6216749;23;20016;-89
2022/09/08 14:15:52;;;;;;;11.05;2.13;;;;;;;11.74;55.63;99939.00;6174080;23;20067;-91
2022/09/08 14:18:47;;;;;;;10.43;2.25;;;;;;;11.61;56.45;99908.88;6212628;23;20084;-87
2022/09/08 14:21:55;;;;;;;9.20;1.70;;;;;;;11.80;56.42;99934.22;6212095;23;20016;-91
2022/09/08 14:24:43;;;;;;;9.38;2.00;;;;;;;11.84;56.99;99943.47;6129970;23;20017;-91
2022/09/08 14:27:30;;;;;;;5.00;2.03;;;;;;;11.64;57.29;99922.75;6103172;23;20085;-89
2022/09/08 14:30:21;;;;;;;11.30;1.95;;;;;;;11.47;58.75;99953.50;6127389;23;20029;-89
2022/09/08 14:33:12;;;;;;;16.55;1.80;;;;;;;11.15;59.40;99931.66;6079505;23;20028;-89
2022/09/08 14:35:42;;;;;;;9.13;1.77;;;;;;;11.29;60.10;99954.38;6125962;23;20077;-88
2022/09/08 14:38:27;;;;;;;13.38;2.30;;;;;;;11.41;59.27;99959.38;6101704;23;20032;-85
2022/09/08 14:41:04;;;;;;;8.20;1.90;;;;;;;11.09;59.62;99950.09;6125956;23;20040;-90
2022/09/08 14:44:09;;;;;;;18.33;3.60;;;;;;;11.24;58.91;99965.44;6125433;23;20839;-90
2022/09/08 14:46:57;;;;;;;14.23;3.72;;;;;;;11.31;58.98;99948.63;6105950;23;20045;-92
2022/09/08 14:49:39;;;;;;;10.38;3.30;;;;;;;11.55;58.62;99971.13;6101453;23;20076;-93
2022/09/08 14:52:27;;;;;;;14.65;2.05;;;;;;;11.51;57.88;99967.38;6100958;23;20024;-90
2022/09/08 14:55:06;;;;;;;29.98;2.97;;;;;;;11.23;58.39;99928.25;6101376;23;20100;-90